Time;durP1;ratioP1;P1;durP2;ratioP2;P2;SDS_P1;SDS_P2;PMS_P1;PMS_P2;Temp;Humidity;BMP_temperature;BMP_pressure;BME280_temperature;BME280_humidity;BME280_pressure;Samples;Min_cycle;Max_cycle;Signal;HPM_P1;HPM_P2
2021/08/02 00:00:25;;;;;;;5.80;1.70;;;;;;;14.99;74.50;100786.69;10105404;28;20067;-69
2021/08/02 00:05:23;;;;;;;4.93;1.20;;;;;;;15.08;74.50;100790.13;10103931;28;20453;-71
2021/08/02 00:10:19;;;;;;;6.93;1.73;;;;;;;15.05;74.58;100782.56;10107458;28;20047;-69
2021/08/02 00:15:18;;;;;;;5.22;1.48;;;;;;;15.04;74.74;100785.66;10102237;28;20074;-69
2021/08/02 00:20:27;;;;;;;6.28;1.42;;;;;;;14.97;75.07;100783.50;10105637;28;20050;-68
2021/08/02 00:25:24;;;;;;;5.93;1.48;;;;;;;14.93;75.07;100793.59;10109778;28;20152;-69
2021/08/02 00:30:24;;;;;;;5.95;1.75;;;;;;;15.00;74.77;100801.28;10102151;28;20125;-68
2021/08/02 00:35:21;;;;;;;4.63;1.48;;;;;;;14.99;74.78;100796.91;10107680;28;20138;-69
2021/08/02 00:40:48;;;;;;;5.60;1.60;;;;;;;15.00;74.71;100798.53;10109721;28;20055;-69
2021/08/02 00:45:45;;;;;;;4.93;1.52;;;;;;;14.98;74.42;100795.31;10112688;28;20051;-69
2021/08/02 00:50:47;;;;;;;4.25;1.33;;;;;;;14.83;75.15;100797.63;10118469;28;20042;-69
2021/08/02 00:55:50;;;;;;;5.43;1.70;;;;;;;14.92;74.53;100786.47;10117684;28;20055;-69
2021/08/02 01:00:47;;;;;;;3.87;1.30;;;;;;;14.90;74.66;100789.59;10110379;28;20050;-71
2021/08/02 01:05:47;;;;;;;3.53;1.13;;;;;;;14.97;74.82;100793.69;11148564;23;20107;-69
2021/08/02 01:10:46;;;;;;;5.15;1.15;;;;;;;14.90;74.40;100784.09;10201694;28;20061;-70
2021/08/02 01:15:48;;;;;;;15.82;2.67;;;;;;;14.82;74.91;100798.75;10187947;28;20041;-70
2021/08/02 01:20:53;;;;;;;3.90;1.10;;;;;;;14.86;74.91;100793.38;10198602;28;20073;-68
2021/08/02 01:25:49;;;;;;;5.63;1.35;;;;;;;14.80;74.99;100797.50;10208910;28;20112;-70
2021/08/02 01:30:47;;;;;;;3.15;0.93;;;;;;;14.74;75.53;100802.44;10196186;28;20103;-70
2021/08/02 01:35:44;;;;;;;7.68;1.45;;;;;;;14.72;75.11;100816.53;10193421;28;20069;-68
2021/08/02 01:40:41;;;;;;;5.18;1.25;;;;;;;14.68;75.16;100809.31;10195224;28;20562;-69
2021/08/02 01:45:55;;;;;;;6.75;1.48;;;;;;;14.71;75.06;100814.13;10211738;28;20066;-70
2021/08/02 01:51:00;;;;;;;5.80;1.42;;;;;;;14.68;75.14;100809.31;10193948;28;20482;-70
2021/08/02 01:56:18;;;;;;;11.70;1.63;;;;;;;14.65;75.10;100804.50;10193605;28;20042;-69
2021/08/02 02:01:15;;;;;;;9.07;1.20;;;;;;;14.65;75.39;100804.50;10203007;28;20062;-69
2021/08/02 02:06:14;;;;;;;5.55;1.00;;;;;;;14.61;75.17;100807.13;10202221;28;20080;-72
2021/08/02 02:11:10;;;;;;;4.20;0.90;;;;;;;14.50;75.67;100806.75;10194707;28;20558;-69
2021/08/02 02:16:07;;;;;;;7.35;1.50;;;;;;;14.31;75.88;100812.78;10193755;28;20050;-69
2021/08/02 02:21:07;;;;;;;4.85;1.20;;;;;;;14.49;76.02;100813.38;10208671;28;20053;-69
2021/08/02 02:26:06;;;;;;;3.90;0.95;;;;;;;14.44;75.84;100805.38;10197964;28;20065;-68
2021/08/02 02:31:04;;;;;;;3.85;1.00;;;;;;;14.43;75.28;100814.75;10200451;28;20092;-69
2021/08/02 02:36:03;;;;;;;4.32;1.15;;;;;;;14.44;75.42;100816.38;10175695;28;20042;-68
2021/08/02 02:41:00;;;;;;;6.40;1.20;;;;;;;14.47;75.55;100809.38;10200971;28;20053;-69
2021/08/02 02:45:58;;;;;;;4.25;0.90;;;;;;;14.48;75.12;100809.06;10203884;28;20050;-69
2021/08/02 02:50:56;;;;;;;5.38;1.10;;;;;;;14.49;75.35;100818.91;10212204;28;20430;-70
2021/08/02 02:55:54;;;;;;;4.65;0.90;;;;;;;14.48;75.04;100820.06;10193649;28;20154;-69
2021/08/02 03:00:52;;;;;;;5.82;1.30;;;;;;;14.41;74.79;100828.06;10201831;28;20073;-71
2021/08/02 03:05:50;;;;;;;2.63;0.82;;;;;;;14.34;74.99;100827.78;10203804;28;20550;-72
2021/08/02 03:10:49;;;;;;;3.10;0.98;;;;;;;14.26;75.13;100825.97;10194857;28;20096;-69
2021/08/02 03:15:46;;;;;;;6.55;1.00;;;;;;;14.28;75.38;100845.69;10190433;28;20046;-69
2021/08/02 03:20:42;;;;;;;7.13;1.30;;;;;;;14.27;75.56;100847.63;10194480;28;20069;-71
2021/08/02 03:26:14;;;;;;;9.38;1.30;;;;;;;14.27;75.20;100844.88;10193171;28;20132;-71
2021/08/02 03:31:12;;;;;;;6.28;1.67;;;;;;;14.18;75.60;100851.59;10186672;28;20063;-71
2021/08/02 03:36:13;;;;;;;4.50;0.95;;;;;;;14.21;76.08;100839.94;10185413;28;20073;-67
2021/08/02 03:41:12;;;;;;;4.72;1.40;;;;;;;14.26;75.87;100842.47;10201746;28;20411;-68
2021/08/02 03:46:10;;;;;;;9.32;1.67;;;;;;;14.32;75.81;100847.41;10206176;28;20056;-67
2021/08/02 03:51:06;;;;;;;6.35;1.23;;;;;;;14.27;75.61;100849.56;10190512;28;20507;-68
2021/08/02 03:56:04;;;;;;;6.28;1.52;;;;;;;14.27;75.77;100855.06;10187565;28;20057;-67
2021/08/02 04:01:00;;;;;;;7.32;1.08;;;;;;;14.35;75.41;100856.91;10190626;28;20077;-68
2021/08/02 04:05:59;;;;;;;3.80;1.00;;;;;;;14.41;74.93;100858.31;10189096;28;20046;-67
2021/08/02 04:10:55;;;;;;;7.88;1.42;;;;;;;14.32;75.10;100868.63;10190032;28;20589;-67
2021/08/02 04:15:52;;;;;;;4.03;1.23;;;;;;;14.28;75.32;100856.69;10196065;28;20423;-67
2021/08/02 04:20:49;;;;;;;4.80;1.38;;;;;;;14.30;75.05;100865.41;10193449;28;20050;-68
2021/08/02 04:25:45;;;;;;;4.25;0.90;;;;;;;14.34;74.78;100866.31;10196183;28;20213;-68
2021/08/02 04:30:42;;;;;;;4.30;1.40;;;;;;;14.38;74.70;100872.75;10177903;28;20558;-66
2021/08/02 04:35:41;;;;;;;6.38;1.20;;;;;;;14.35;75.23;100867.94;10192450;28;20596;-67
2021/08/02 04:40:39;;;;;;;6.68;1.38;;;;;;;14.34;75.60;100877.31;10193550;28;20535;-68
2021/08/02 04:45:35;;;;;;;5.82;1.35;;;;;;;14.33;75.52;100872.97;10208143;28;20057;-66
2021/08/02 04:50:32;;;;;;;8.70;1.40;;;;;;;14.34;75.83;100879.25;10180176;28;20467;-68
2021/08/02 04:55:28;;;;;;;6.75;1.30;;;;;;;14.32;75.94;100868.63;10193028;28;20073;-68
2021/08/02 05:00:25;;;;;;;3.88;1.10;;;;;;;14.34;76.11;100893.81;10194280;28;20161;-67
2021/08/02 05:05:21;;;;;;;6.18;1.30;;;;;;;14.35;76.57;100889.94;10195446;28;20042;-67
2021/08/02 05:10:18;;;;;;;9.18;2.13;;;;;;;14.26;76.04;100891.97;10184928;28;20529;-67
2021/08/02 05:15:14;;;;;;;4.60;1.40;;;;;;;14.21;76.46;100900.44;10186774;28;21774;-68
2021/08/02 05:20:13;;;;;;;6.05;1.75;;;;;;;14.27;76.49;100893.56;10197723;28;20568;-68
2021/08/02 05:25:10;;;;;;;6.05;1.85;;;;;;;14.17;77.17;100905.78;10215826;28;20091;-68
2021/08/02 05:30:07;;;;;;;5.07;1.65;;;;;;;14.30;77.00;100895.66;10197571;28;20046;-67
2021/08/02 05:35:03;;;;;;;4.53;1.20;;;;;;;14.28;76.97;100908.94;10203531;28;20184;-68
2021/08/02 05:40:00;;;;;;;6.22;1.80;;;;;;;14.34;77.50;100912.25;10207136;28;20070;-68
2021/08/02 05:44:56;;;;;;;4.60;1.00;;;;;;;14.23;77.11;100909.16;10207599;28;20082;-67
2021/08/02 05:49:53;;;;;;;9.77;1.70;;;;;;;14.37;77.45;100909.66;10198781;28;20080;-67
2021/08/02 05:54:49;;;;;;;7.95;1.60;;;;;;;14.41;77.77;100899.59;10193525;28;20484;-68
2021/08/02 05:59:46;;;;;;;6.45;1.50;;;;;;;14.51;76.77;100910.16;10204017;28;20633;-67
2021/08/02 06:04:42;;;;;;;3.25;1.23;;;;;;;14.59;75.83;100910.44;10205810;28;20087;-68
2021/08/02 06:09:39;;;;;;;7.15;1.30;;;;;;;14.68;76.15;100916.63;10193922;28;20128;-67
2021/08/02 06:14:35;;;;;;;4.53;1.20;;;;;;;14.55;75.30;100915.00;10193361;28;20085;-67
2021/08/02 06:19:32;;;;;;;7.47;1.42;;;;;;;14.54;74.94;100919.69;10203938;28;20463;-68
2021/08/02 06:24:29;;;;;;;5.55;1.65;;;;;;;14.68;73.42;100919.38;10209067;28;20442;-68
2021/08/02 06:29:25;;;;;;;4.85;1.50;;;;;;;14.80;73.60;100916.66;10198249;28;20092;-68
2021/08/02 06:34:21;;;;;;;7.75;1.23;;;;;;;14.92;73.62;100927.72;10188119;28;20069;-68
2021/08/02 06:39:18;;;;;;;4.63;1.10;;;;;;;14.88;73.02;100915.75;10189999;28;20097;-68
2021/08/02 06:44:14;;;;;;;6.13;1.20;;;;;;;15.07;73.08;100930.94;10194668;28;20090;-67
2021/08/02 06:49:11;;;;;;;5.47;1.17;;;;;;;15.08;72.64;100932.53;10200390;28;20474;-68
2021/08/02 06:54:07;;;;;;;5.65;1.30;;;;;;;15.16;72.89;100939.88;10193731;28;20498;-68
2021/08/02 06:59:04;;;;;;;4.50;1.20;;;;;;;15.07;72.66;100937.22;10199848;28;20045;-66
2021/08/02 07:04:00;;;;;;;8.43;1.92;;;;;;;15.09;73.80;100951.47;10209372;28;20080;-68
2021/08/02 07:08:58;;;;;;;8.52;1.40;;;;;;;15.15;74.50;100954.78;10201093;28;20054;-68
2021/08/02 07:13:54;;;;;;;8.60;1.67;;;;;;;15.23;73.66;100962.16;10174594;28;20049;-68
2021/08/02 07:18:53;;;;;;;4.30;1.40;;;;;;;15.23;73.90;100950.34;10192198;28;20034;-68
2021/08/02 07:23:49;;;;;;;3.47;1.33;;;;;;;15.45;73.41;100957.31;10199538;28;20042;-68
2021/08/02 07:28:45;;;;;;;6.82;1.05;;;;;;;15.47;72.37;100960.53;10187529;28;20129;-68
2021/08/02 07:33:42;;;;;;;7.18;1.88;;;;;;;15.31;73.16;100977.75;10194123;28;20081;-68
2021/08/02 07:38:39;;;;;;;6.05;1.42;;;;;;;15.17;73.56;101002.06;10191903;28;20049;-68
2021/08/02 07:43:36;;;;;;;7.50;1.30;;;;;;;14.71;79.10;101007.59;10199164;28;20050;-68
2021/08/02 07:48:33;;;;;;;6.05;1.30;;;;;;;14.66;81.86;101004.22;10199257;28;20468;-68
2021/08/02 07:53:29;;;;;;;4.07;1.10;;;;;;;14.67;81.71;100989.34;10189725;28;20073;-68
2021/08/02 07:58:26;;;;;;;3.53;1.30;;;;;;;14.71;82.57;100985.59;10185700;28;20150;-68
2021/08/02 08:03:22;;;;;;;3.72;1.20;;;;;;;14.86;82.50;100981.38;10207884;28;20076;-69
2021/08/02 08:08:20;;;;;;;3.75;1.20;;;;;;;15.01;82.21;100981.84;10192420;28;20585;-69
2021/08/02 08:13:17;;;;;;;5.38;1.33;;;;;;;15.05;79.02;100971.78;10182524;28;20428;-68
2021/08/02 08:18:13;;;;;;;4.43;1.10;;;;;;;15.12;79.28;100972.81;10191021;28;20046;-68
2021/08/02 08:23:09;;;;;;;5.03;1.30;;;;;;;15.26;78.58;100972.47;10203466;28;20104;-67
2021/08/02 08:28:08;;;;;;;6.03;1.38;;;;;;;15.36;77.50;100974.78;10193552;28;20108;-67
2021/08/02 08:33:05;;;;;;;4.00;1.08;;;;;;;15.41;75.99;100979.28;10187328;28;20074;-66
2021/08/02 08:38:01;;;;;;;6.03;1.38;;;;;;;15.53;74.79;100978.47;10195303;28;20042;-68
2021/08/02 08:42:58;;;;;;;7.30;1.50;;;;;;;15.74;72.56;100986.63;10209290;28;20049;-68
2021/08/02 08:47:56;;;;;;;8.65;1.15;;;;;;;15.77;71.04;100995.00;10193707;28;20064;-67
2021/08/02 08:52:57;;;;;;;6.53;1.10;;;;;;;15.98;70.83;100985.78;10186134;28;20103;-67
2021/08/02 08:57:54;;;;;;;5.15;1.35;;;;;;;16.19;70.58;101002.97;10184744;28;20077;-68
2021/08/02 09:02:52;;;;;;;6.57;1.20;;;;;;;16.13;70.27;100993.34;10212673;28;20120;-67
2021/08/02 09:07:52;;;;;;;11.52;1.02;;;;;;;16.30;70.17;101003.28;10202943;28;20038;-68
2021/08/02 09:12:53;;;;;;;5.25;1.52;;;;;;;16.37;68.31;100997.16;10178088;28;20072;-67
2021/08/02 09:17:50;;;;;;;3.30;1.05;;;;;;;16.61;68.13;100997.06;10195300;28;20092;-68
2021/08/02 09:22:48;;;;;;;5.10;1.00;;;;;;;16.70;65.91;100993.34;10204589;28;20045;-67
2021/08/02 09:27:44;;;;;;;6.28;1.70;;;;;;;17.04;64.90;100992.72;10199483;28;20161;-67
2021/08/02 09:32:54;;;;;;;4.97;1.10;;;;;;;16.95;63.56;100992.09;10196921;28;20045;-68
2021/08/02 09:37:55;;;;;;;5.03;1.27;;;;;;;17.07;63.40;100984.88;10198189;28;20490;-67
2021/08/02 09:42:57;;;;;;;4.70;1.30;;;;;;;16.88;62.41;100989.13;10211299;28;20041;-68
2021/08/02 09:48:14;;;;;;;4.75;1.10;;;;;;;17.07;63.07;100984.88;10200262;28;20488;-67
2021/08/02 09:53:20;;;;;;;4.65;0.88;;;;;;;17.52;61.69;100983.63;10201872;28;20484;-68
2021/08/02 09:58:21;;;;;;;3.70;1.20;;;;;;;17.53;58.24;100996.28;10190571;28;20126;-68
2021/08/02 10:03:17;;;;;;;4.35;1.02;;;;;;;17.46;60.65;100985.88;10196607;28;20116;-68
2021/08/02 10:08:17;;;;;;;6.43;1.10;;;;;;;17.97;60.15;100993.38;10197115;28;20630;-68
2021/08/02 10:13:22;;;;;;;4.80;1.30;;;;;;;18.69;57.05;100990.13;10193478;28;20066;-67
2021/08/02 10:18:20;;;;;;;6.53;0.80;;;;;;;19.79;53.40;100976.56;10192063;28;20073;-67
2021/08/02 10:23:24;;;;;;;4.10;0.88;;;;;;;20.01;48.44;100987.97;10203935;28;20402;-67
2021/08/02 10:28:22;;;;;;;5.80;1.20;;;;;;;19.98;48.08;100992.28;10199572;28;20077;-67
2021/08/02 10:33:19;;;;;;;6.28;1.50;;;;;;;20.05;46.86;100997.94;10194721;28;20459;-67
2021/08/02 10:38:17;;;;;;;5.82;1.08;;;;;;;20.41;45.89;100997.59;10200626;28;20121;-67
2021/08/02 10:43:31;;;;;;;4.63;1.10;;;;;;;19.88;48.50;101010.38;10203188;28;20510;-67
2021/08/02 10:48:30;;;;;;;4.43;1.30;;;;;;;18.74;56.09;101030.56;10195635;28;20054;-67
2021/08/02 10:53:27;;;;;;;6.80;1.30;;;;;;;17.79;61.19;101038.00;10185851;28;20132;-66
2021/08/02 10:58:25;;;;;;;3.90;1.00;;;;;;;17.32;62.65;101049.09;10187185;28;20096;-67
2021/08/02 11:03:31;;;;;;;4.68;1.13;;;;;;;17.02;62.65;101055.81;10210420;28;20496;-66
2021/08/02 11:08:27;;;;;;;5.90;1.48;;;;;;;16.41;65.61;101064.31;10200291;28;20038;-66
2021/08/02 11:13:25;;;;;;;4.53;1.52;;;;;;;16.51;65.59;101063.81;10194737;28;20060;-66
2021/08/02 11:18:24;;;;;;;5.25;1.23;;;;;;;16.58;65.64;101057.69;10199551;28;20068;-66
2021/08/02 11:23:32;;;;;;;7.57;1.35;;;;;;;16.55;65.23;101058.41;10203754;28;20462;-67
2021/08/02 11:28:36;;;;;;;4.68;1.30;;;;;;;16.81;64.49;101049.72;10200653;28;20034;-67
2021/08/02 11:33:33;;;;;;;7.57;1.20;;;;;;;17.10;63.37;101061.53;10199427;28;20136;-67
2021/08/02 11:38:37;;;;;;;5.05;1.60;;;;;;;17.08;62.77;101070.19;10209866;28;20058;-67
2021/08/02 11:43:45;;;;;;;7.55;1.45;;;;;;;17.32;62.44;101071.19;10192224;28;20133;-66
2021/08/02 11:48:43;;;;;;;9.30;1.40;;;;;;;17.48;61.62;101076.75;10204788;28;20092;-67
2021/08/02 11:53:40;;;;;;;7.45;1.70;;;;;;;17.64;60.08;101086.63;10193768;28;20041;-67
2021/08/02 11:58:47;;;;;;;4.43;0.80;;;;;;;17.98;59.46;101083.50;10193328;28;20520;-67
2021/08/02 12:03:45;;;;;;;4.85;0.80;;;;;;;17.99;59.61;101079.59;10198121;28;20065;-66
2021/08/02 12:08:54;;;;;;;4.60;1.00;;;;;;;18.17;58.46;101086.34;10198563;28;20451;-67
2021/08/02 12:13:50;;;;;;;4.82;1.30;;;;;;;18.11;58.94;101082.25;10200976;28;20042;-67
2021/08/02 12:18:47;;;;;;;5.05;1.58;;;;;;;18.05;59.73;101084.47;10186691;28;20041;-66
2021/08/02 12:23:44;;;;;;;8.30;1.80;;;;;;;18.04;60.05;101082.88;10194941;28;20569;-67
2021/08/02 12:28:41;;;;;;;6.53;1.70;;;;;;;17.94;60.37;101088.13;10194956;28;20496;-66
2021/08/02 12:33:38;;;;;;;13.60;1.63;;;;;;;17.72;60.20;101093.13;10197934;28;20046;-66
2021/08/02 12:38:39;;;;;;;5.68;1.30;;;;;;;17.33;62.82;101090.16;10204299;28;20499;-67
2021/08/02 12:43:36;;;;;;;5.35;1.13;;;;;;;17.38;64.79;101098.22;10205718;28;20073;-67
2021/08/02 12:48:33;;;;;;;6.13;1.35;;;;;;;17.24;66.45;101092.28;10201807;28;20049;-66
2021/08/02 12:53:29;;;;;;;8.80;1.77;;;;;;;17.01;68.56;101103.94;10213590;28;20046;-67
2021/08/02 12:58:26;;;;;;;8.18;1.42;;;;;;;16.86;71.30;101085.34;10202504;28;20104;-67
2021/08/02 13:03:22;;;;;;;4.18;1.40;;;;;;;16.75;71.89;101084.19;10207807;28;20531;-68
2021/08/02 13:08:19;;;;;;;7.13;1.60;;;;;;;16.66;72.26;101080.78;10205297;28;20034;-67
2021/08/02 13:13:15;;;;;;;5.03;1.67;;;;;;;16.75;73.30;101079.47;10209225;28;20507;-67
2021/08/02 13:18:17;;;;;;;4.80;1.23;;;;;;;16.88;73.23;101082.25;10197804;28;20069;-67
2021/08/02 13:28:22;;;;;;;5.50;1.45;;;;;;;16.88;71.12;101087.78;10208817;28;20073;-67
2021/08/02 13:33:19;;;;;;;6.38;1.85;;;;;;;16.90;71.57;101085.47;10208437;28;20100;-67
2021/08/02 13:38:15;;;;;;;5.68;1.27;;;;;;;16.87;70.60;101075.09;10192922;28;20046;-67
2021/08/02 13:43:12;;;;;;;6.78;1.50;;;;;;;16.87;70.63;101078.66;10211743;28;20099;-65
2021/08/02 13:48:09;;;;;;;7.55;1.50;;;;;;;17.28;70.02;101068.31;10192762;28;20038;-66
2021/08/02 13:53:05;;;;;;;6.00;1.27;;;;;;;17.91;67.58;101077.81;10202235;28;20084;-66
2021/08/02 13:58:04;;;;;;;4.10;0.82;;;;;;;18.16;64.56;101068.13;10205608;28;20068;-66
2021/08/02 14:03:04;;;;;;;6.97;1.20;;;;;;;18.14;64.74;101075.97;10198762;28;20112;-67
2021/08/02 14:08:01;;;;;;;6.35;1.10;;;;;;;17.91;63.96;101077.81;10203883;28;20088;-66
2021/08/02 14:13:01;;;;;;;7.45;1.38;;;;;;;17.82;65.24;101070.50;10192263;28;20045;-66
2021/08/02 14:18:06;;;;;;;3.72;1.02;;;;;;;17.70;65.53;101067.00;10203265;28;20042;-67
2021/08/02 14:23:05;;;;;;;7.13;1.52;;;;;;;17.75;65.87;101075.81;10201136;28;20458;-66
2021/08/02 14:28:05;;;;;;;6.35;0.88;;;;;;;17.68;64.48;101075.63;10202083;28;20128;-67
2021/08/02 14:33:02;;;;;;;3.88;0.65;;;;;;;17.61;63.09;101075.47;10210616;28;20049;-66
2021/08/02 14:37:59;;;;;;;3.92;0.93;;;;;;;17.95;63.76;101078.69;10197134;28;20072;-66
2021/08/02 14:43:06;;;;;;;4.85;1.00;;;;;;;18.08;61.98;101072.69;10198783;28;20049;-67
2021/08/02 14:48:03;;;;;;;3.30;0.95;;;;;;;18.09;61.90;101065.19;10194495;28;20099;-67
2021/08/02 14:53:01;;;;;;;3.92;0.88;;;;;;;18.11;61.49;101076.69;10204376;28;20133;-67
2021/08/02 14:57:58;;;;;;;4.40;0.75;;;;;;;18.34;60.41;101067.72;10195770;28;20077;-67
2021/08/02 15:02:56;;;;;;;5.72;0.80;;;;;;;18.87;60.49;101068.06;10203930;28;20041;-67
2021/08/02 15:07:53;;;;;;;5.30;0.80;;;;;;;19.18;58.50;101072.59;10184282;28;20519;-63
2021/08/02 15:12:49;;;;;;;6.50;1.17;;;;;;;19.20;56.34;101070.25;10186182;28;20044;-66
2021/08/02 15:17:51;;;;;;;5.10;1.05;;;;;;;19.32;57.16;101066.50;10190936;28;20037;-65
2021/08/02 15:22:51;;;;;;;4.40;0.88;;;;;;;18.80;56.83;101082.56;10192737;28;20037;-65
2021/08/02 15:27:50;;;;;;;6.55;1.00;;;;;;;18.70;57.28;101075.63;10190384;28;20073;-65
2021/08/02 15:32:48;;;;;;;5.15;1.13;;;;;;;18.66;57.44;101080.28;10191913;28;20096;-64
2021/08/02 15:37:45;;;;;;;3.13;0.55;;;;;;;18.97;56.14;101081.31;10193102;28;20042;-61
2021/08/02 15:42:43;;;;;;;5.13;1.80;;;;;;;18.71;56.13;101087.50;10193298;28;20472;-66
2021/08/02 15:47:44;;;;;;;4.43;1.60;;;;;;;18.46;58.32;101098.03;10193513;28;20038;-66
2021/08/02 15:52:52;;;;;;;2.33;0.60;;;;;;;18.37;58.82;101097.44;10190685;28;20099;-66
2021/08/02 15:57:55;;;;;;;4.75;1.38;;;;;;;18.28;59.83;101087.34;10191727;28;20096;-65
2021/08/02 16:02:51;;;;;;;;;;;;;;;18.10;61.00;101097.22;10192914;28;20571;-66
2021/08/02 16:07:51;;;;;;;5.53;1.63;;;;;;;18.05;61.85;101101.06;10192246;28;19921;-67
2021/08/02 16:12:52;;;;;;;4.30;1.25;;;;;;;17.89;62.23;101091.97;10190336;28;20037;-66
2021/08/02 16:17:50;;;;;;;7.05;1.80;;;;;;;17.96;61.79;101091.34;10190711;28;20183;-66
2021/08/02 16:22:48;;;;;;;6.07;2.05;;;;;;;18.04;61.35;101093.13;10192747;28;20042;-66
2021/08/02 16:27:45;;;;;;;5.20;1.10;;;;;;;18.03;60.66;101097.06;10191771;28;20073;-66
2021/08/02 16:32:42;;;;;;;5.22;2.03;;;;;;;18.07;60.38;101097.94;10193988;28;20038;-66
2021/08/02 16:37:39;;;;;;;5.20;1.10;;;;;;;17.95;60.03;101109.13;10196164;28;20096;-66
2021/08/02 16:42:39;;;;;;;4.32;1.30;;;;;;;17.98;60.45;101105.63;10194655;28;20092;-66
2021/08/02 16:47:44;;;;;;;5.43;1.27;;;;;;;17.92;60.42;101107.09;10192892;28;20045;-67
2021/08/02 16:52:40;;;;;;;4.22;1.00;;;;;;;17.97;61.18;101120.63;10193300;28;20071;-66
2021/08/02 16:57:39;;;;;;;4.63;0.82;;;;;;;17.88;61.42;101118.84;10188711;28;20073;-66
2021/08/02 17:02:35;;;;;;;5.80;1.88;;;;;;;17.78;61.94;101113.03;10191755;28;20069;-66
2021/08/02 17:07:33;;;;;;;3.45;0.95;;;;;;;17.98;62.13;101116.69;10188960;28;20042;-66
2021/08/02 17:12:30;;;;;;;3.50;0.85;;;;;;;18.26;61.04;101117.38;10185183;28;20049;-67
2021/08/02 17:17:26;;;;;;;2.90;0.90;;;;;;;18.13;61.04;101115.88;10188009;28;20069;-67
2021/08/02 17:22:23;;;;;;;3.75;1.00;;;;;;;18.23;61.83;101107.03;10184759;28;20041;-67
2021/08/02 17:27:20;;;;;;;4.25;1.20;;;;;;;17.99;63.46;101113.59;10190545;28;20038;-67
2021/08/02 17:32:16;;;;;;;3.47;0.80;;;;;;;17.90;63.70;101123.25;10189580;28;20467;-67
2021/08/02 17:37:13;;;;;;;3.15;0.60;;;;;;;17.75;63.95;101122.03;10182725;28;20046;-67
2021/08/02 17:42:09;;;;;;;3.17;0.98;;;;;;;17.50;64.42;101118.63;10195000;28;20042;-67
2021/08/02 17:47:06;;;;;;;6.05;2.38;;;;;;;17.52;64.40;101117.13;10192648;28;20050;-66
2021/08/02 17:52:03;;;;;;;4.32;1.40;;;;;;;17.53;64.72;101123.47;10192149;28;20054;-66
2021/08/02 17:56:59;;;;;;;3.78;0.88;;;;;;;17.37;65.31;101126.19;10190439;28;20046;-67
2021/08/02 18:01:56;;;;;;;5.10;1.15;;;;;;;17.40;65.65;101131.00;10190469;28;20097;-67
2021/08/02 18:06:53;;;;;;;3.95;1.35;;;;;;;17.30;65.92;101126.81;10188278;28;21734;-67
2021/08/02 18:11:50;;;;;;;6.70;1.25;;;;;;;17.28;66.02;101128.31;10191026;28;20099;-66
2021/08/02 18:16:47;;;;;;;10.65;1.15;;;;;;;17.27;66.10;101133.06;10190906;28;20048;-67
2021/08/02 18:21:43;;;;;;;2.88;0.70;;;;;;;17.19;66.63;101147.81;10182746;28;20046;-66
2021/08/02 18:26:40;;;;;;;3.22;0.90;;;;;;;17.19;66.43;101147.81;10188672;28;20095;-65
2021/08/02 18:31:37;;;;;;;3.85;0.70;;;;;;;17.18;66.74;101146.22;10188339;28;20475;-67
2021/08/02 18:36:34;;;;;;;2.92;0.57;;;;;;;17.04;66.20;101152.16;10183581;28;20049;-67
2021/08/02 18:41:31;;;;;;;4.90;0.90;;;;;;;17.03;66.14;101167.09;10187328;28;20049;-66
2021/08/02 18:46:27;;;;;;;2.75;1.00;;;;;;;16.79;66.57;101168.00;10185702;28;20050;-66
2021/08/02 18:51:24;;;;;;;5.47;1.40;;;;;;;16.67;66.77;101171.56;10186082;28;20046;-66
2021/08/02 18:56:20;;;;;;;8.05;1.50;;;;;;;16.69;66.93;101171.22;10178064;28;20073;-65
2021/08/02 19:01:17;;;;;;;3.90;1.15;;;;;;;16.69;66.84;101179.50;10187000;28;20084;-66
2021/08/02 19:06:14;;;;;;;2.90;0.90;;;;;;;16.69;66.99;101179.50;10183753;28;20080;-67
2021/08/02 19:11:19;;;;;;;3.22;0.80;;;;;;;16.61;67.55;101184.78;10187817;28;20050;-66
2021/08/02 19:16:16;;;;;;;4.63;1.30;;;;;;;16.60;68.06;101188.69;10177346;28;20595;-67
2021/08/02 19:21:13;;;;;;;4.57;1.48;;;;;;;16.65;68.24;101195.13;10191961;28;20046;-66
2021/08/02 19:26:10;;;;;;;6.00;1.40;;;;;;;16.69;68.87;101202.38;10195051;28;20100;-67
2021/08/02 19:31:06;;;;;;;8.43;1.20;;;;;;;16.58;69.38;101207.56;10181717;28;20469;-66
2021/08/02 19:36:04;;;;;;;4.90;1.70;;;;;;;16.58;70.06;101202.03;10181253;28;20103;-66
2021/08/02 19:41:03;;;;;;;4.03;1.50;;;;;;;16.53;70.53;101207.81;10185838;28;20132;-66
2021/08/02 19:46:06;;;;;;;7.05;1.38;;;;;;;16.52;70.99;101206.19;10176266;28;20131;-67
2021/08/02 19:51:03;;;;;;;5.57;1.27;;;;;;;16.38;71.52;101197.44;10174690;28;20427;-65
2021/08/02 19:56:00;;;;;;;7.68;1.58;;;;;;;16.37;71.65;101212.41;10197691;28;20073;-67
2021/08/02 20:00:57;;;;;;;5.28;1.40;;;;;;;16.31;72.23;101213.78;10189786;28;20160;-66
2021/08/02 20:05:54;;;;;;;4.18;1.23;;;;;;;16.31;72.29;101222.84;10177574;28;20451;-67
2021/08/02 20:10:52;;;;;;;4.25;1.50;;;;;;;16.22;72.36;101221.38;10186972;28;20130;-67
2021/08/02 20:15:54;;;;;;;8.00;2.95;;;;;;;16.24;72.70;101227.34;10176562;28;20077;-67
2021/08/02 20:20:54;;;;;;;5.95;1.60;;;;;;;16.16;72.93;101229.88;10191165;28;20041;-66
2021/08/02 20:25:52;;;;;;;5.20;1.50;;;;;;;16.12;73.24;101228.94;10186442;28;20656;-67
2021/08/02 20:30:50;;;;;;;5.68;1.20;;;;;;;16.11;73.06;101232.88;10185259;28;20693;-66
2021/08/02 20:35:48;;;;;;;8.57;1.63;;;;;;;16.05;73.40;101241.69;10182044;28;20707;-66
2021/08/02 20:40:44;;;;;;;6.00;1.70;;;;;;;16.01;73.23;101233.28;10181137;28;20483;-69
2021/08/02 20:45:41;;;;;;;5.65;1.40;;;;;;;15.90;74.09;101243.16;10185776;28;20135;-66
2021/08/02 20:50:39;;;;;;;5.60;1.30;;;;;;;15.86;74.13;101242.22;10189858;28;20042;-66
2021/08/02 20:55:36;;;;;;;6.47;2.03;;;;;;;15.84;74.25;101244.53;10185862;28;20081;-68
2021/08/02 21:00:33;;;;;;;3.65;1.48;;;;;;;15.86;74.36;101259.56;10191755;28;20069;-68
2021/08/02 21:05:37;;;;;;;5.25;1.20;;;;;;;15.92;74.14;101258.22;10206272;28;20512;-68
2021/08/02 21:10:50;;;;;;;5.03;1.48;;;;;;;15.91;73.58;101255.81;10213054;28;20070;-68
2021/08/02 21:15:55;;;;;;;3.50;1.20;;;;;;;15.96;73.50;101269.38;10199936;28;20185;-67
2021/08/02 21:20:54;;;;;;;3.88;1.20;;;;;;;15.98;73.45;101267.06;10204302;28;20096;-67
2021/08/02 21:25:55;;;;;;;8.45;1.65;;;;;;;15.88;73.40;101268.31;10197706;28;20519;-67
2021/08/02 21:30:52;;;;;;;4.00;1.23;;;;;;;15.86;73.96;101269.81;10203171;28;20069;-67
2021/08/02 21:35:48;;;;;;;5.38;1.63;;;;;;;15.82;73.90;101274.38;10213112;28;20069;-67
2021/08/02 21:40:45;;;;;;;6.50;1.48;;;;;;;15.69;74.56;101277.09;10204987;28;20737;-68
2021/08/02 21:45:41;;;;;;;5.72;1.73;;;;;;;15.59;74.54;101277.47;10202737;28;20124;-68
2021/08/02 21:50:39;;;;;;;4.75;1.35;;;;;;;15.58;75.20;101275.88;10194325;28;20037;-68
2021/08/02 21:55:38;;;;;;;3.75;1.50;;;;;;;15.53;75.70;101285.16;10209617;28;20107;-68
2021/08/02 22:00:36;;;;;;;4.68;1.33;;;;;;;15.57;75.47;101288.03;10195201;28;20096;-67
2021/08/02 22:05:33;;;;;;;2.85;0.98;;;;;;;15.57;75.97;101285.28;10194523;28;20739;-68
2021/08/02 22:10:31;;;;;;;6.25;1.50;;;;;;;15.62;75.45;101293.38;10193737;28;20462;-68
2021/08/02 22:15:28;;;;;;;3.80;1.25;;;;;;;15.52;76.26;101288.25;10198509;28;20076;-68
2021/08/02 22:20:25;;;;;;;5.35;1.38;;;;;;;15.48;76.20;101287.31;10214513;28;20124;-67
2021/08/02 22:25:22;;;;;;;3.15;1.10;;;;;;;15.51;76.14;101287.44;10201369;28;20104;-67
2021/08/02 22:30:20;;;;;;;4.28;1.20;;;;;;;15.50;75.96;101276.75;10188674;28;20046;-65
2021/08/02 22:35:17;;;;;;;3.88;1.20;;;;;;;15.48;76.46;101276.28;10199824;28;20104;-71
2021/08/02 22:40:14;;;;;;;3.63;1.30;;;;;;;15.48;75.90;101282.63;10204031;28;20096;-71
2021/08/02 22:45:13;;;;;;;6.38;1.50;;;;;;;15.48;76.23;101281.78;10203939;28;20137;-71
2021/08/02 22:50:13;;;;;;;8.77;1.55;;;;;;;15.43;76.58;101276.50;10191843;28;20565;-71
2021/08/02 22:55:12;;;;;;;5.28;1.92;;;;;;;15.39;76.47;101289.31;10195071;28;20053;-71